createdAt,value
2024-03-12T00:01:24.262Z,10.80
2024-03-12T00:03:56.674Z,10.80
2024-03-12T00:06:27.387Z,10.90
2024-03-12T00:08:57.335Z,10.70
2024-03-12T00:11:28.356Z,10.70
2024-03-12T00:13:58.493Z,10.40
2024-03-12T00:16:30.456Z,10.40
2024-03-12T00:19:02.224Z,10.50
2024-03-12T00:21:32.039Z,10.40
2024-03-12T00:24:01.734Z,10.30
2024-03-12T00:26:34.298Z,10.10
2024-03-12T00:29:04.116Z,10.00
2024-03-12T00:31:34.237Z,9.90
2024-03-12T00:34:04.054Z,10.00
2024-03-12T00:36:34.008Z,10.00
2024-03-12T00:39:04.533Z,10.20
2024-03-12T00:41:36.972Z,10.20
2024-03-12T00:44:07.556Z,10.20
2024-03-12T00:46:37.740Z,9.90
2024-03-12T00:49:08.590Z,9.70
2024-03-12T00:51:38.615Z,9.70
2024-03-12T00:54:08.786Z,9.90
2024-03-12T00:56:40.136Z,9.90
2024-03-12T00:59:09.845Z,9.90
2024-03-12T01:01:39.666Z,9.60
2024-03-12T01:04:10.833Z,9.70
2024-03-12T01:06:40.743Z,9.80
2024-03-12T01:09:10.338Z,10.00
2024-03-12T01:11:42.708Z,10.00
2024-03-12T01:14:14.184Z,9.90
2024-03-12T01:16:44.056Z,10.00
2024-03-12T01:19:14.076Z,10.00
2024-03-12T01:21:43.725Z,10.00
2024-03-12T01:24:14.366Z,10.40
2024-03-12T01:26:45.967Z,10.10
2024-03-12T01:29:15.787Z,9.90
2024-03-12T01:31:45.796Z,9.90
2024-03-12T01:34:17.755Z,9.90
2024-03-12T01:36:48.866Z,9.90
2024-03-12T01:39:26.671Z,10.00
2024-03-12T01:41:58.467Z,10.00
2024-03-12T01:44:28.475Z,9.90
2024-03-12T01:46:58.202Z,10.00
2024-03-12T01:49:27.999Z,10.10
2024-03-12T01:51:57.892Z,9.90
2024-03-12T01:54:27.549Z,9.90
2024-03-12T01:56:58.979Z,9.80
2024-03-12T01:59:28.780Z,10.00
2024-03-12T02:02:02.684Z,10.00
2024-03-12T02:04:32.499Z,9.80
2024-03-12T02:07:02.278Z,9.80
2024-03-12T02:09:32.277Z,9.70
2024-03-12T02:12:03.677Z,9.90
2024-03-12T02:14:33.589Z,9.70
2024-03-12T02:17:06.918Z,9.60
2024-03-12T02:19:36.799Z,9.50
2024-03-12T02:22:06.812Z,9.40
2024-03-12T02:24:38.174Z,9.60
2024-03-12T02:27:08.381Z,9.40
2024-03-12T02:29:38.092Z,9.50
2024-03-12T02:32:08.726Z,9.40
2024-03-12T02:34:38.964Z,9.30
2024-03-12T02:37:09.200Z,9.40
2024-03-12T02:39:41.171Z,9.50
2024-03-12T02:42:11.358Z,9.30
2024-03-12T02:44:41.060Z,9.30
2024-03-12T02:47:11.070Z,9.40
2024-03-12T02:49:41.299Z,9.30
2024-03-12T02:52:13.001Z,9.60
2024-03-12T02:54:44.634Z,9.80
2024-03-12T02:57:14.841Z,9.70
2024-03-12T02:59:45.279Z,9.60
2024-03-12T03:02:15.580Z,9.60
2024-03-12T03:04:45.899Z,9.80
2024-03-12T03:07:18.499Z,9.60
2024-03-12T03:09:50.058Z,9.40
2024-03-12T03:12:20.061Z,9.30
2024-03-12T03:14:49.752Z,9.20
2024-03-12T03:17:19.368Z,9.20
2024-03-12T03:19:50.412Z,9.40
2024-03-12T03:22:21.153Z,9.60
2024-03-12T03:24:53.023Z,9.60
2024-03-12T03:27:23.030Z,9.40
2024-03-12T03:29:53.027Z,9.50
2024-03-12T03:32:25.206Z,9.50
2024-03-12T03:34:55.635Z,9.30
2024-03-12T03:37:28.413Z,9.50
2024-03-12T03:39:59.366Z,9.20
2024-03-12T03:42:29.494Z,9.30
2024-03-12T03:44:59.279Z,9.40
2024-03-12T03:47:35.872Z,9.50
2024-03-12T03:50:07.002Z,9.60
2024-03-12T03:52:38.551Z,9.50
2024-03-12T03:55:11.105Z,9.20
2024-03-12T03:57:41.355Z,9.30
2024-03-12T04:00:24.900Z,9.20
2024-03-12T04:02:54.896Z,9.20
2024-03-12T04:05:25.106Z,9.20
2024-03-12T04:07:55.877Z,9.20
2024-03-12T04:10:27.145Z,9.40
2024-03-12T04:12:57.786Z,9.30
2024-03-12T04:15:31.747Z,9.50
2024-03-12T04:18:02.133Z,9.80
2024-03-12T04:20:32.679Z,9.60
2024-03-12T04:23:03.327Z,9.70
2024-03-12T04:25:34.868Z,9.70
2024-03-12T04:28:04.702Z,9.40
2024-03-12T04:30:36.965Z,9.60
2024-03-12T04:33:07.841Z,9.60
2024-03-12T04:35:37.806Z,9.80
2024-03-12T04:38:09.730Z,9.90
2024-03-12T04:40:41.526Z,9.70
2024-03-12T04:43:11.524Z,9.60
2024-03-12T04:45:42.616Z,9.80
2024-03-12T04:48:13.353Z,9.60
2024-03-12T04:50:43.226Z,9.50
2024-03-12T04:53:13.039Z,9.30
2024-03-12T04:55:46.230Z,9.20
2024-03-12T04:58:16.171Z,9.00
2024-03-12T05:00:46.021Z,9.30
2024-03-12T05:03:16.009Z,8.90
2024-03-12T05:05:45.793Z,8.90
2024-03-12T05:08:15.592Z,8.80
2024-03-12T05:10:46.888Z,8.80
2024-03-12T05:13:16.783Z,8.90
2024-03-12T05:15:46.798Z,9.10
2024-03-12T05:18:16.483Z,9.10
2024-03-12T05:20:46.512Z,9.00
2024-03-12T05:23:16.820Z,9.10
2024-03-12T05:25:48.273Z,9.10
2024-03-12T05:28:21.078Z,9.10
2024-03-12T05:30:51.635Z,9.10
2024-03-12T05:33:29.731Z,9.10
2024-03-12T05:35:59.603Z,9.20
2024-03-12T05:38:46.408Z,9.30
2024-03-12T05:41:27.327Z,9.50
2024-03-12T05:44:16.748Z,9.30
2024-03-12T05:47:05.925Z,9.20
2024-03-12T05:49:35.934Z,8.90
2024-03-12T05:52:06.129Z,9.00
2024-03-12T05:54:35.953Z,9.10
2024-03-12T05:57:07.731Z,9.10
2024-03-12T05:59:37.436Z,9.10
2024-03-12T06:02:07.417Z,8.90
2024-03-12T06:04:37.159Z,8.80
2024-03-12T06:07:07.382Z,8.80
2024-03-12T06:09:37.107Z,8.70
2024-03-12T06:12:08.648Z,8.90
2024-03-12T06:14:38.951Z,9.00
2024-03-12T06:17:09.110Z,9.30
2024-03-12T06:19:38.929Z,9.50
2024-03-12T06:22:10.097Z,9.50
2024-03-12T06:24:41.224Z,9.50
2024-03-12T06:27:12.945Z,9.40
2024-03-12T06:29:43.779Z,9.60
2024-03-12T06:32:13.396Z,9.50
2024-03-12T06:34:47.349Z,9.50
2024-03-12T06:37:20.596Z,9.60
2024-03-12T06:39:54.517Z,9.70
2024-03-12T06:42:31.331Z,9.70
2024-03-12T06:45:02.151Z,9.60
2024-03-12T06:47:38.584Z,9.60
2024-03-12T06:50:10.646Z,9.50
2024-03-12T06:52:40.347Z,9.60
2024-03-12T06:55:17.128Z,9.60
2024-03-12T06:57:54.124Z,9.60
2024-03-12T07:00:34.710Z,9.80
2024-03-12T07:03:06.350Z,9.70
2024-03-12T07:05:37.969Z,9.80
2024-03-12T07:08:08.966Z,9.60
2024-03-12T07:10:42.483Z,9.60
2024-03-12T07:13:14.435Z,9.70
2024-03-12T07:15:46.461Z,9.60
2024-03-12T07:18:17.609Z,9.40
2024-03-12T07:20:48.199Z,9.30
2024-03-12T07:23:19.347Z,9.50
2024-03-12T07:25:49.170Z,9.70
2024-03-12T07:28:24.352Z,9.50
2024-03-12T07:30:55.975Z,9.60
2024-03-12T07:33:26.198Z,9.80
2024-03-12T07:36:00.613Z,9.60
2024-03-12T07:38:30.611Z,9.50
2024-03-12T07:41:00.217Z,9.60
2024-03-12T07:43:31.714Z,9.90
2024-03-12T07:46:02.135Z,9.90
2024-03-12T07:48:32.474Z,10.00
2024-03-12T07:51:03.395Z,10.30
2024-03-12T07:53:41.482Z,10.20
2024-03-12T07:56:13.228Z,9.90
2024-03-12T07:58:47.977Z,10.20
2024-03-12T08:05:35.132Z,9.90
2024-03-12T08:08:08.176Z,9.90
2024-03-12T08:10:39.840Z,10.10
2024-03-12T08:13:10.441Z,10.10
2024-03-12T08:15:42.368Z,10.00
2024-03-12T08:18:17.705Z,10.30
2024-03-12T08:20:51.674Z,10.30
2024-03-12T08:23:22.417Z,10.50
2024-03-12T08:25:56.627Z,10.70
2024-03-12T08:28:32.635Z,10.80
2024-03-12T08:31:11.029Z,11.00
2024-03-12T08:33:45.648Z,11.20
2024-03-12T08:36:17.106Z,11.30
2024-03-12T08:38:47.802Z,11.40
2024-03-12T08:41:18.009Z,11.50
2024-03-12T08:43:48.024Z,11.60
2024-03-12T08:46:20.743Z,11.80
2024-03-12T08:48:50.783Z,12.00
2024-03-12T08:51:20.625Z,12.00
2024-03-12T08:53:50.462Z,12.30
2024-03-12T08:56:21.197Z,12.30
2024-03-12T08:58:51.521Z,12.50
2024-03-12T09:01:23.058Z,12.70
2024-03-12T09:03:54.434Z,12.80
2024-03-12T09:06:24.870Z,12.90
2024-03-12T09:08:55.278Z,12.90
2024-03-12T09:11:25.029Z,12.80
2024-03-12T09:13:56.364Z,12.70
2024-03-12T09:16:28.633Z,12.90
2024-03-12T09:18:58.425Z,12.80
2024-03-12T09:21:29.668Z,13.00
2024-03-12T09:24:02.263Z,13.20
2024-03-12T09:26:33.594Z,13.00
2024-03-12T09:29:03.611Z,12.80
2024-03-12T09:31:36.112Z,13.00
2024-03-12T09:34:06.482Z,13.20
2024-03-12T09:36:36.405Z,13.60
2024-03-12T09:39:12.598Z,13.70
2024-03-12T09:41:55.998Z,13.90
2024-03-12T09:44:27.560Z,14.10
2024-03-12T09:47:00.329Z,14.00
2024-03-12T09:49:31.412Z,14.40
2024-03-12T09:52:01.329Z,14.30
2024-03-12T09:54:31.968Z,14.40
2024-03-12T09:57:03.987Z,14.50
2024-03-12T09:59:34.746Z,14.30
2024-03-12T10:02:07.299Z,14.40
2024-03-12T10:04:37.560Z,14.60
2024-03-12T10:07:07.610Z,14.90
2024-03-12T10:09:45.904Z,14.90
2024-03-12T10:16:30.678Z,14.80
2024-03-12T10:19:13.310Z,14.90
2024-03-12T10:21:43.588Z,14.90
2024-03-12T10:24:19.147Z,14.90
2024-03-12T10:26:49.837Z,14.90
2024-03-12T10:29:21.217Z,15.00
2024-03-12T10:31:52.547Z,15.10
2024-03-12T10:34:25.133Z,15.10
2024-03-12T10:36:54.910Z,15.30
2024-03-12T10:39:34.386Z,15.20
2024-03-12T10:42:05.604Z,15.40
2024-03-12T10:44:38.409Z,15.90
2024-03-12T10:47:09.026Z,16.10
2024-03-12T10:49:41.090Z,16.40
2024-03-12T10:52:11.890Z,16.60
2024-03-12T10:54:42.454Z,16.20
2024-03-12T10:57:15.660Z,16.20
2024-03-12T10:59:46.589Z,16.50
2024-03-12T11:02:16.640Z,16.10
2024-03-12T11:04:50.008Z,15.80
2024-03-12T11:07:22.982Z,15.70
2024-03-12T11:09:55.847Z,15.90
2024-03-12T11:12:26.953Z,15.90
2024-03-12T11:14:57.950Z,16.50
2024-03-12T11:17:29.232Z,16.70
2024-03-12T11:20:03.747Z,16.90
2024-03-12T11:22:34.040Z,16.60
2024-03-12T11:25:06.246Z,17.00
2024-03-12T11:27:38.419Z,16.70
2024-03-12T11:30:16.185Z,16.60
2024-03-12T11:32:50.371Z,16.30
2024-03-12T11:35:36.294Z,16.40
2024-03-12T11:38:12.058Z,16.30
2024-03-12T11:40:52.851Z,16.90
2024-03-12T11:43:42.697Z,16.60
2024-03-12T11:46:13.973Z,16.50
2024-03-12T11:48:47.040Z,16.50
2024-03-12T11:51:20.209Z,16.80
2024-03-12T11:53:50.954Z,16.90
2024-03-12T11:56:23.405Z,17.30
2024-03-12T11:59:00.095Z,18.30
2024-03-12T12:01:36.337Z,18.70
2024-03-12T12:04:09.224Z,19.20
2024-03-12T12:06:41.330Z,18.60
2024-03-12T12:09:12.567Z,18.90
2024-03-12T12:11:42.886Z,19.90
2024-03-12T12:14:13.415Z,19.00
2024-03-12T12:16:44.138Z,17.30
2024-03-12T12:19:21.669Z,17.30
2024-03-12T12:21:58.409Z,17.10
2024-03-12T12:24:28.362Z,17.50
2024-03-12T12:27:00.907Z,18.00
2024-03-12T12:29:35.412Z,18.50
2024-03-12T12:32:05.731Z,19.40
2024-03-12T12:34:37.894Z,20.30
2024-03-12T12:37:13.734Z,20.30
2024-03-12T12:42:17.472Z,19.40
2024-03-12T12:44:51.849Z,20.70
2024-03-12T12:47:24.066Z,20.50
2024-03-12T12:49:57.049Z,20.50
2024-03-12T12:52:29.378Z,20.80
2024-03-12T12:55:03.166Z,21.50
2024-03-12T12:57:36.517Z,21.40
2024-03-12T13:00:16.919Z,21.50
2024-03-12T13:02:48.096Z,21.70
2024-03-12T13:05:22.647Z,21.80
2024-03-12T13:07:54.716Z,22.00
2024-03-12T13:10:28.533Z,22.10
2024-03-12T13:12:58.465Z,21.70
2024-03-12T13:15:29.770Z,22.00
2024-03-12T13:18:00.132Z,22.20
2024-03-12T13:20:29.810Z,22.20
2024-03-12T13:23:00.949Z,21.00
2024-03-12T13:25:30.927Z,21.50
2024-03-12T13:28:01.047Z,21.90
2024-03-12T13:30:30.980Z,21.90
2024-03-12T13:33:00.843Z,21.10
2024-03-12T13:35:30.831Z,21.50
2024-03-12T13:38:02.104Z,22.00
2024-03-12T13:40:32.099Z,22.40
2024-03-12T13:43:02.189Z,22.10
2024-03-12T13:45:32.167Z,22.40
2024-03-12T13:48:02.171Z,23.00
2024-03-12T13:50:31.856Z,22.60
2024-03-12T13:53:03.920Z,22.40
2024-03-12T13:55:36.584Z,22.70
2024-03-12T13:58:09.081Z,22.00
2024-03-12T14:00:41.433Z,20.80
2024-03-12T14:03:13.004Z,20.10
2024-03-12T14:05:47.713Z,20.80
2024-03-12T14:08:20.210Z,21.00
2024-03-12T14:10:51.409Z,21.90
2024-03-12T14:13:23.210Z,21.60
2024-03-12T14:16:06.257Z,22.30
2024-03-12T14:18:39.399Z,20.90
2024-03-12T14:21:09.542Z,21.10
2024-03-12T14:23:41.414Z,21.20
2024-03-12T14:26:12.724Z,22.10
2024-03-12T14:28:47.203Z,20.80
2024-03-12T14:31:17.990Z,21.10
2024-03-12T14:33:49.892Z,21.50
2024-03-12T14:36:24.888Z,21.10
2024-03-12T14:38:59.625Z,20.90
2024-03-12T14:41:31.897Z,21.10
2024-03-12T14:44:02.217Z,20.70
2024-03-12T14:46:33.068Z,21.30
2024-03-12T14:49:03.064Z,20.90
2024-03-12T14:51:34.745Z,20.80
2024-03-12T14:54:06.472Z,21.20
2024-03-12T14:56:39.672Z,21.30
2024-03-12T14:59:10.819Z,21.30
2024-03-12T15:01:43.625Z,21.90
2024-03-12T15:04:14.549Z,20.80
2024-03-12T15:06:44.887Z,20.30
2024-03-12T15:09:16.312Z,20.90
2024-03-12T15:11:48.670Z,20.90
2024-03-12T15:14:19.094Z,21.40
2024-03-12T15:16:49.007Z,22.50
2024-03-12T15:19:20.753Z,22.30
2024-03-12T15:21:54.120Z,21.10
2024-03-12T15:24:27.063Z,21.70
2024-03-12T15:26:59.146Z,22.50
2024-03-12T15:29:31.186Z,22.40
2024-03-12T15:32:01.700Z,23.00
2024-03-12T15:34:31.519Z,22.00
2024-03-12T15:37:04.171Z,21.50
2024-03-12T15:39:36.507Z,22.20
2024-03-12T15:42:08.540Z,21.50
2024-03-12T15:44:40.512Z,21.30
2024-03-12T15:47:10.629Z,20.90
2024-03-12T15:49:41.852Z,20.50
2024-03-12T15:52:12.279Z,20.10
2024-03-12T15:54:45.366Z,19.80
2024-03-12T15:57:18.896Z,19.40
2024-03-12T15:59:49.925Z,19.80
2024-03-12T16:02:23.735Z,20.20
2024-03-12T16:04:58.242Z,20.90
2024-03-12T16:07:31.257Z,21.60
2024-03-12T16:10:10.044Z,21.70
2024-03-12T16:12:43.022Z,21.80
2024-03-12T16:15:21.768Z,21.40
2024-03-12T16:17:53.909Z,21.10
2024-03-12T16:20:29.002Z,21.10
2024-03-12T16:22:59.186Z,20.80
2024-03-12T16:25:39.759Z,20.40
2024-03-12T16:28:20.862Z,20.20
2024-03-12T16:30:56.810Z,20.10
2024-03-12T16:33:31.199Z,19.50
2024-03-12T16:36:01.128Z,19.20
2024-03-12T16:38:33.891Z,18.80
2024-03-12T16:41:10.303Z,18.40
2024-03-12T16:43:45.409Z,18.00
2024-03-12T16:46:23.830Z,17.80
2024-03-12T16:48:57.118Z,17.40
2024-03-12T16:51:27.933Z,17.30
2024-03-12T16:54:00.531Z,17.30
2024-03-12T16:56:34.141Z,17.10
2024-03-12T16:59:06.092Z,16.80
2024-03-12T17:01:39.484Z,16.70
2024-03-12T17:04:18.398Z,16.70
2024-03-12T17:11:34.955Z,16.30
2024-03-12T17:14:22.948Z,16.20
2024-03-12T17:17:07.623Z,16.10
2024-03-12T17:22:17.733Z,16.10
2024-03-12T17:24:53.465Z,16.20
2024-03-12T17:27:33.508Z,16.30
2024-03-12T17:35:07.745Z,16.10
2024-03-12T17:37:41.766Z,15.80
2024-03-12T17:40:19.623Z,15.90
2024-03-12T17:50:33.549Z,15.60
2024-03-12T18:00:53.764Z,15.00
2024-03-12T18:03:27.513Z,15.00
2024-03-12T18:08:40.940Z,15.00
2024-03-12T18:21:25.064Z,14.70
2024-03-12T19:25:27.609Z,13.60
2024-03-12T20:23:16.451Z,12.80
2024-03-12T20:25:50.773Z,12.90
2024-03-12T20:28:29.513Z,12.70
2024-03-12T20:31:09.974Z,12.60
2024-03-12T20:36:15.719Z,12.60
2024-03-12T20:38:48.504Z,12.70
2024-03-12T20:44:08.599Z,12.50
2024-03-12T20:46:45.374Z,12.40
2024-03-12T20:49:17.757Z,12.70
2024-03-12T20:51:53.431Z,12.70
2024-03-12T20:54:24.961Z,12.20
2024-03-12T20:56:57.440Z,12.40
2024-03-12T20:59:35.643Z,12.40
2024-03-12T21:10:01.242Z,12.50
2024-03-12T21:12:33.360Z,12.30
2024-03-12T21:18:01.784Z,12.20
2024-03-12T21:20:34.289Z,12.30
2024-03-12T21:23:05.831Z,12.10
2024-03-12T21:25:36.120Z,12.20
2024-03-12T21:28:07.542Z,12.30
2024-03-12T21:30:41.419Z,12.30
2024-03-12T21:38:17.276Z,11.80
2024-03-12T21:43:18.038Z,11.80
2024-03-12T21:45:48.647Z,11.80
2024-03-12T21:48:22.197Z,12.10
2024-03-12T21:58:24.017Z,11.80
2024-03-12T22:00:55.556Z,11.80
2024-03-12T22:13:36.196Z,11.50
2024-03-12T22:21:11.494Z,11.90
2024-03-12T22:28:46.365Z,11.60
2024-03-12T22:31:17.651Z,11.20
2024-03-12T22:33:50.900Z,11.00
2024-03-12T23:31:46.460Z,11.60
2024-03-12T23:34:17.750Z,11.30
